Cp 276 — IGNR — position and weather

sailwx.info

Track history (hours):
 
Tides and Currents Weather Stations Pressure Air Temp Water Temp Dewpoint Dewpoint Depression Visibility Wind Speed Wind Dir Waves Ship Positions

Cp 276

Last reported at 2017-May-27 21:58 UTC. Time now 2017-Jul-27 16:43 UTC.
Position N 37°51' E 015°22'.
Warning: this ship's position is months out of date.

Type: SAR. MMSI: 247020900.

Date/timePositionNaut miles runAvg speedWind from/ knotsBaromVisibWave heightAir tempDewpointWater temp
2017-May-27 21:58N 37°51' E 015°22'2 3.8
2017-May-27 21:27N 37°52' E 015°24'2 3.3
2017-May-27 20:58N 37°51' E 015°23'1 1.1
2017-May-27 20:29N 37°51' E 015°23'1 1.0
2017-May-27 19:19N 37°52' E 015°24'1 1.0
2017-May-27 18:23N 37°53' E 015°23'2 6.1
2017-May-27 18:00N 37°51' E 015°21'  
2017-May-25 06:19N 37°51' E 015°23'1 0.4
2017-May-25 04:32N 37°52' E 015°24'0 1.5
2017-May-25 04:28N 37°52' E 015°24'1 1.5
2017-May-25 04:00N 37°51' E 015°24'0 0.8
2017-May-25 03:29N 37°52' E 015°23'0 0.9
2017-May-25 02:59N 37°52' E 015°24'0 0.8
2017-May-25 02:29N 37°52' E 015°24'0 0.9
2017-May-25 02:00N 37°53' E 015°24'0 0.3
2017-May-25 01:08N 37°53' E 015°24'1 5.6
2017-May-25 00:55N 37°52' E 015°23'1 2.5
2017-May-25 00:20N 37°52' E 015°25'2 5.2
2017-May-24 23:58N 37°51' E 015°23'2 4.0
2017-May-24 23:30N 37°52' E 015°24'0 0.3
2017-May-24 22:43N 37°52' E 015°24'1 4.8
2017-May-24 22:30N 37°52' E 015°23'1 1.0
2017-May-24 21:49N 37°52' E 015°23'2 4.6
2017-May-24 21:26N 37°51' E 015°22'2 4.5
2017-May-24 21:00N 37°52' E 015°24'0 0.6
2017-May-24 20:13N 37°52' E 015°24'0 0.3
2017-May-24 19:14N 37°52' E 015°24'0 0.3
2017-May-24 18:29N 37°52' E 015°24'6 0.2
2017-May-23 16:02N 37°47' E 015°26'0 6.0
2017-May-23 15:59N 37°47' E 015°26'1 1.4
2017-May-23 15:29N 37°47' E 015°27'6 1.4
2017-May-23 11:21N 37°52' E 015°23'5 0.2
2017-May-22 08:31N 37°48' E 015°19'0 1.1
2017-May-22 08:18N 37°48' E 015°18'6 0.5
2017-May-21 21:03N 37°50' E 015°26'214.4
2017-May-21 20:55N 37°51' E 015°28'2 3.7
2017-May-21 20:27N 37°52' E 015°29'  
Track history (hours):
 
Tides and Currents Weather Stations Pressure Air Temp Water Temp Dewpoint Dewpoint Depression Visibility Wind Speed Wind Dir Waves Ship Positions

Cp 276

Last reported at 2017-May-27 21:58 UTC. Time now 2017-Jul-27 16:43 UTC.
Position N 37°51' E 015°22'.
Warning: this ship's position is months out of date.

Type: SAR. MMSI: 247020900.

Date/timePositionNaut miles runAvg speedWind from/ knotsBaromVisibWave heightAir tempDewpointWater temp
2017-May-27 21:58N 37°51' E 015°22'2 3.8
2017-May-27 21:27N 37°52' E 015°24'2 3.3
2017-May-27 20:58N 37°51' E 015°23'1 1.1
2017-May-27 20:29N 37°51' E 015°23'1 1.0
2017-May-27 19:19N 37°52' E 015°24'1 1.0
2017-May-27 18:23N 37°53' E 015°23'2 6.1
2017-May-27 18:00N 37°51' E 015°21'  
2017-May-25 06:19N 37°51' E 015°23'1 0.4
2017-May-25 04:32N 37°52' E 015°24'0 1.5
2017-May-25 04:28N 37°52' E 015°24'1 1.5
2017-May-25 04:00N 37°51' E 015°24'0 0.8
2017-May-25 03:29N 37°52' E 015°23'0 0.9
2017-May-25 02:59N 37°52' E 015°24'0 0.8
2017-May-25 02:29N 37°52' E 015°24'0 0.9
2017-May-25 02:00N 37°53' E 015°24'0 0.3
2017-May-25 01:08N 37°53' E 015°24'1 5.6
2017-May-25 00:55N 37°52' E 015°23'1 2.5
2017-May-25 00:20N 37°52' E 015°25'2 5.2
2017-May-24 23:58N 37°51' E 015°23'2 4.0
2017-May-24 23:30N 37°52' E 015°24'0 0.3
2017-May-24 22:43N 37°52' E 015°24'1 4.8
2017-May-24 22:30N 37°52' E 015°23'1 1.0
2017-May-24 21:49N 37°52' E 015°23'2 4.6
2017-May-24 21:26N 37°51' E 015°22'2 4.5
2017-May-24 21:00N 37°52' E 015°24'0 0.6
2017-May-24 20:13N 37°52' E 015°24'0 0.3
2017-May-24 19:14N 37°52' E 015°24'0 0.3
2017-May-24 18:29N 37°52' E 015°24'6 0.2
2017-May-23 16:02N 37°47' E 015°26'0 6.0
2017-May-23 15:59N 37°47' E 015°26'1 1.4
2017-May-23 15:29N 37°47' E 015°27'6 1.4
2017-May-23 11:21N 37°52' E 015°23'5 0.2
2017-May-22 08:31N 37°48' E 015°19'0 1.1
2017-May-22 08:18N 37°48' E 015°18'6 0.5
2017-May-21 21:03N 37°50' E 015°26'214.4
2017-May-21 20:55N 37°51' E 015°28'2 3.7
2017-May-21 20:27N 37°52' E 015°29'  

Dump ship's entire track history